createdAt,value
2023-10-23T00:02:01.566Z,87.70
2023-10-23T00:04:29.352Z,87.11
2023-10-23T00:06:57.064Z,88.37
2023-10-23T00:09:24.726Z,88.13
2023-10-23T00:11:52.492Z,87.53
2023-10-23T00:14:20.188Z,89.00
2023-10-23T00:16:47.891Z,89.05
2023-10-23T00:19:17.099Z,88.98
2023-10-23T00:21:45.765Z,88.66
2023-10-23T00:24:13.841Z,88.87
2023-10-23T00:26:41.578Z,88.45
2023-10-23T00:29:09.542Z,88.29
2023-10-23T00:31:37.266Z,88.08
2023-10-23T00:34:05.083Z,88.41
2023-10-23T00:36:34.244Z,87.65
2023-10-23T00:39:01.913Z,88.00
2023-10-23T00:41:29.601Z,88.20
2023-10-23T00:43:57.302Z,87.81
2023-10-23T00:46:27.562Z,88.63
2023-10-23T00:48:55.327Z,88.21
2023-10-23T00:51:23.569Z,88.39
2023-10-23T00:53:53.858Z,87.83
2023-10-23T00:56:21.721Z,88.23
2023-10-23T00:58:49.555Z,88.44
2023-10-23T01:01:17.564Z,88.20
2023-10-23T01:03:45.846Z,87.83
2023-10-23T01:06:14.928Z,87.58
2023-10-23T01:08:43.974Z,88.30
2023-10-23T01:11:13.099Z,87.74
2023-10-23T01:13:41.012Z,88.10
2023-10-23T01:16:08.755Z,88.16
2023-10-23T01:18:36.486Z,87.97
2023-10-23T01:21:04.497Z,87.58
2023-10-23T01:23:36.772Z,87.22
2023-10-23T01:26:05.947Z,87.03
2023-10-23T01:28:33.600Z,87.07
2023-10-23T01:31:01.412Z,87.03
2023-10-23T01:33:30.975Z,87.83
2023-10-23T01:35:58.724Z,87.77
2023-10-23T01:38:26.645Z,87.75
2023-10-23T01:40:54.772Z,88.26
2023-10-23T01:43:23.842Z,87.59
2023-10-23T01:45:51.585Z,87.31
2023-10-23T01:48:19.315Z,87.54
2023-10-23T01:50:47.109Z,87.62
2023-10-23T01:53:14.809Z,87.21
2023-10-23T01:55:42.492Z,87.15
2023-10-23T01:58:10.202Z,86.97
2023-10-23T02:00:39.257Z,87.11
2023-10-23T02:03:07.093Z,87.08
2023-10-23T02:05:35.072Z,87.04
2023-10-23T02:08:02.798Z,87.13
2023-10-23T02:10:31.163Z,88.13
2023-10-23T02:12:58.913Z,87.75
2023-10-23T02:15:26.648Z,87.77
2023-10-23T02:17:56.156Z,87.87
2023-10-23T02:20:28.418Z,87.89
2023-10-23T02:22:56.112Z,87.49
2023-10-23T02:25:23.952Z,87.85
2023-10-23T02:27:51.654Z,87.63
2023-10-23T02:30:19.576Z,87.22
2023-10-23T02:32:47.312Z,87.51
2023-10-23T02:35:16.740Z,87.26
2023-10-23T02:37:44.432Z,87.75
2023-10-23T02:40:13.562Z,87.91
2023-10-23T02:42:41.557Z,87.89
2023-10-23T02:45:10.357Z,87.91
2023-10-23T02:47:38.661Z,87.95
2023-10-23T02:50:07.235Z,88.07
2023-10-23T02:52:36.258Z,88.16
2023-10-23T02:55:04.023Z,88.49
2023-10-23T02:57:31.913Z,88.78
2023-10-23T02:59:59.811Z,89.10
2023-10-23T03:02:27.842Z,88.56
2023-10-23T03:04:55.608Z,88.62
2023-10-23T03:07:23.290Z,88.53
2023-10-23T03:09:53.080Z,88.28
2023-10-23T03:12:21.442Z,88.96
2023-10-23T03:14:49.154Z,88.37
2023-10-23T03:17:16.866Z,88.33
2023-10-23T03:19:44.491Z,89.01
2023-10-23T03:22:12.197Z,89.42
2023-10-23T03:24:40.754Z,88.89
2023-10-23T03:27:09.826Z,88.80
2023-10-23T03:29:37.744Z,89.43
2023-10-23T03:32:05.843Z,89.53
2023-10-23T03:34:33.873Z,89.61
2023-10-23T03:37:02.040Z,89.56
2023-10-23T03:39:29.894Z,89.62
2023-10-23T03:41:57.552Z,89.57
2023-10-23T03:44:26.632Z,89.82
2023-10-23T03:46:55.013Z,90.03
2023-10-23T03:49:22.773Z,89.48
2023-10-23T03:51:50.652Z,88.98
2023-10-23T03:54:18.320Z,89.48
2023-10-23T03:56:45.985Z,89.53
2023-10-23T03:59:13.737Z,89.07
2023-10-23T04:01:42.783Z,89.13
2023-10-23T04:04:11.430Z,89.19
2023-10-23T04:06:40.398Z,89.46
2023-10-23T04:09:08.534Z,89.44
2023-10-23T04:11:36.474Z,89.71
2023-10-23T04:14:05.379Z,90.21
2023-10-23T04:16:33.316Z,89.71
2023-10-23T04:19:02.488Z,89.81
2023-10-23T04:21:30.215Z,90.02
2023-10-23T04:23:57.920Z,90.32
2023-10-23T04:26:25.565Z,89.87
2023-10-23T04:28:53.300Z,89.96
2023-10-23T04:31:21.037Z,89.60
2023-10-23T04:33:48.747Z,90.36
2023-10-23T04:36:17.861Z,89.89
2023-10-23T04:38:45.525Z,90.25
2023-10-23T04:41:13.287Z,90.33
2023-10-23T04:43:41.293Z,90.17
2023-10-23T04:46:09.100Z,90.15
2023-10-23T04:48:37.038Z,90.13
2023-10-23T04:51:05.354Z,90.12
2023-10-23T04:53:34.527Z,90.14
2023-10-23T04:56:06.417Z,90.12
2023-10-23T04:58:34.346Z,90.17
2023-10-23T05:01:02.176Z,90.56
2023-10-23T05:03:31.120Z,90.34
2023-10-23T05:05:59.012Z,90.62
2023-10-23T05:08:26.717Z,89.94
2023-10-23T05:11:06.121Z,90.15
2023-10-23T05:13:33.780Z,89.75
2023-10-23T05:16:05.739Z,89.87
2023-10-23T05:18:34.134Z,90.80
2023-10-23T05:21:07.908Z,90.63
2023-10-23T05:23:35.744Z,91.13
2023-10-23T05:26:04.815Z,90.82
2023-10-23T05:28:32.883Z,90.71
2023-10-23T05:31:00.616Z,91.30
2023-10-23T05:33:28.312Z,91.56
2023-10-23T05:36:03.027Z,91.94
2023-10-23T05:38:30.719Z,92.26
2023-10-23T05:40:58.629Z,91.77
2023-10-23T05:43:28.547Z,91.86
2023-10-23T05:45:56.374Z,91.99
2023-10-23T05:48:24.456Z,91.86
2023-10-23T05:50:59.618Z,91.85
2023-10-23T05:53:27.616Z,91.57
2023-10-23T05:55:55.449Z,91.62
2023-10-23T05:58:23.530Z,91.65
2023-10-23T06:00:52.630Z,92.46
2023-10-23T06:03:20.389Z,92.47
2023-10-23T06:05:48.190Z,92.65
2023-10-23T06:08:15.900Z,92.67
2023-10-23T06:10:44.482Z,92.83
2023-10-23T06:13:12.712Z,92.74
2023-10-23T06:15:40.698Z,93.11
2023-10-23T06:18:10.275Z,92.82
2023-10-23T06:20:37.963Z,92.63
2023-10-23T06:23:05.842Z,92.33
2023-10-23T06:25:33.568Z,91.42
2023-10-23T06:28:01.782Z,91.51
2023-10-23T06:30:29.648Z,91.47
2023-10-23T06:32:57.437Z,91.37
2023-10-23T06:35:26.602Z,91.32
2023-10-23T06:37:54.338Z,91.90
2023-10-23T06:40:22.067Z,92.09
2023-10-23T06:42:49.846Z,91.82
2023-10-23T06:45:17.684Z,91.93
2023-10-23T06:47:49.752Z,91.68
2023-10-23T06:50:17.693Z,91.18
2023-10-23T06:52:47.296Z,91.06
2023-10-23T06:55:15.074Z,91.08
2023-10-23T06:57:42.728Z,91.44
2023-10-23T07:00:12.150Z,91.51
2023-10-23T07:02:39.920Z,91.96
2023-10-23T07:05:08.318Z,92.15
2023-10-23T07:07:36.068Z,92.32
2023-10-23T07:10:06.576Z,91.98
2023-10-23T07:12:34.270Z,91.94
2023-10-23T07:15:03.955Z,92.29
2023-10-23T07:17:31.880Z,92.35
2023-10-23T07:19:59.793Z,92.30
2023-10-23T07:22:27.516Z,92.42
2023-10-23T07:24:56.670Z,93.01
2023-10-23T07:27:27.269Z,93.48
2023-10-23T07:29:56.971Z,93.89
2023-10-23T07:32:24.726Z,94.34
2023-10-23T07:34:52.543Z,94.47
2023-10-23T07:37:20.276Z,95.08
2023-10-23T07:39:48.900Z,94.43
2023-10-23T07:42:16.855Z,94.62
2023-10-23T07:44:45.980Z,93.82
2023-10-23T07:47:14.587Z,94.27
2023-10-23T07:49:42.346Z,93.93
2023-10-23T07:52:10.257Z,93.82
2023-10-23T07:54:38.021Z,93.93
2023-10-23T07:57:06.481Z,93.47
2023-10-23T07:59:34.174Z,93.58
2023-10-23T08:02:04.258Z,93.39
2023-10-23T08:04:33.254Z,93.31
2023-10-23T08:07:01.955Z,92.77
2023-10-23T08:09:29.738Z,91.80
2023-10-23T08:11:57.481Z,92.11
2023-10-23T08:14:25.213Z,92.13
2023-10-23T08:16:53.773Z,91.91
2023-10-23T08:19:23.016Z,91.28
2023-10-23T08:21:50.810Z,91.25
2023-10-23T08:24:18.643Z,90.36
2023-10-23T08:26:46.340Z,89.37
2023-10-23T08:29:17.053Z,89.41
2023-10-23T08:31:44.971Z,89.18
2023-10-23T08:34:12.764Z,89.22
2023-10-23T08:36:41.998Z,88.96
2023-10-23T08:39:09.790Z,88.41
2023-10-23T08:41:42.278Z,88.29
2023-10-23T08:44:11.536Z,87.82
2023-10-23T08:46:42.101Z,87.75
2023-10-23T08:49:10.171Z,87.26
2023-10-23T08:51:43.542Z,87.19
2023-10-23T08:54:18.565Z,86.77
2023-10-23T08:56:47.061Z,85.94
2023-10-23T08:59:15.538Z,85.74
2023-10-23T09:01:43.665Z,86.11
2023-10-23T09:04:13.269Z,85.33
2023-10-23T09:06:43.618Z,84.22
2023-10-23T09:09:12.047Z,84.70
2023-10-23T09:11:40.894Z,85.34
2023-10-23T09:14:08.617Z,83.21
2023-10-23T09:16:37.257Z,84.32
2023-10-23T09:19:05.775Z,81.03
2023-10-23T09:21:33.761Z,82.07
2023-10-23T09:24:04.827Z,82.51
2023-10-23T09:26:32.940Z,81.56
2023-10-23T09:29:00.623Z,79.86
2023-10-23T09:31:29.033Z,80.20
2023-10-23T09:33:57.034Z,80.54
2023-10-23T09:36:28.159Z,78.85
2023-10-23T09:39:00.177Z,77.83
2023-10-23T09:41:31.451Z,78.28
2023-10-23T09:44:01.738Z,77.95
2023-10-23T09:46:30.870Z,78.92
2023-10-23T09:49:01.467Z,78.47
2023-10-23T09:51:31.692Z,78.67
2023-10-23T09:54:01.017Z,77.87
2023-10-23T09:56:33.415Z,79.03
2023-10-23T09:59:02.695Z,78.41
2023-10-23T10:01:42.183Z,78.05
2023-10-23T10:04:15.224Z,77.35
2023-10-23T10:06:48.176Z,77.40
2023-10-23T10:09:16.918Z,75.47
2023-10-23T10:11:46.830Z,75.85
2023-10-23T10:14:15.760Z,76.09
2023-10-23T10:16:43.999Z,75.75
2023-10-23T10:19:13.393Z,75.96
2023-10-23T10:21:49.568Z,74.88
2023-10-23T10:24:18.737Z,74.78
2023-10-23T10:26:48.069Z,76.40
2023-10-23T10:29:15.867Z,75.28
2023-10-23T10:32:11.121Z,74.87
2023-10-23T10:34:55.361Z,75.88
2023-10-23T10:37:27.144Z,74.51
2023-10-23T10:40:05.865Z,74.35
2023-10-23T10:42:37.847Z,73.97
2023-10-23T10:45:20.589Z,73.87
2023-10-23T10:47:50.879Z,72.76
2023-10-23T10:50:34.154Z,73.16
2023-10-23T10:53:04.586Z,73.44
2023-10-23T10:55:33.282Z,72.99
2023-10-23T10:58:02.900Z,73.41
2023-10-23T11:00:31.573Z,73.55
2023-10-23T11:02:59.686Z,72.68
2023-10-23T11:05:27.604Z,73.33
2023-10-23T11:07:55.723Z,72.10
2023-10-23T11:10:23.839Z,72.51
2023-10-23T11:12:52.435Z,74.14
2023-10-23T11:15:21.583Z,72.86
2023-10-23T11:17:49.430Z,72.55
2023-10-23T11:20:17.887Z,71.34
2023-10-23T11:22:46.652Z,72.28
2023-10-23T11:25:16.616Z,72.46
2023-10-23T11:27:44.432Z,70.92
2023-10-23T11:30:12.734Z,71.08
2023-10-23T11:32:41.991Z,71.48
2023-10-23T11:35:10.337Z,73.11
2023-10-23T11:37:42.217Z,71.53
2023-10-23T11:40:11.624Z,68.46
2023-10-23T11:42:48.435Z,70.91
2023-10-23T11:45:18.216Z,70.22
2023-10-23T11:47:48.178Z,69.58
2023-10-23T11:50:16.222Z,71.13
2023-10-23T11:52:46.386Z,71.40
2023-10-23T11:55:16.297Z,69.93
2023-10-23T11:57:47.725Z,70.52
2023-10-23T12:00:17.343Z,69.31
2023-10-23T12:02:48.009Z,70.69
2023-10-23T12:05:18.030Z,69.16
2023-10-23T12:07:48.492Z,69.92
2023-10-23T12:10:18.128Z,69.79
2023-10-23T12:12:47.148Z,69.36
2023-10-23T12:15:16.559Z,70.28
2023-10-23T12:17:44.960Z,69.63
2023-10-23T12:20:17.237Z,69.76
2023-10-23T12:22:47.075Z,70.29
2023-10-23T12:25:17.305Z,70.29
2023-10-23T12:27:45.228Z,68.36
2023-10-23T12:30:16.429Z,69.01
2023-10-23T12:33:11.604Z,69.70
2023-10-23T12:35:38.894Z,70.13
2023-10-23T12:38:07.027Z,71.00
2023-10-23T12:40:37.054Z,71.58
2023-10-23T12:43:05.656Z,71.28
2023-10-23T12:45:33.534Z,70.50
2023-10-23T12:48:01.425Z,69.17
2023-10-23T12:50:30.066Z,70.69
2023-10-23T12:52:59.317Z,70.52
2023-10-23T12:55:27.115Z,71.26
2023-10-23T12:57:55.046Z,70.46
2023-10-23T13:00:22.786Z,70.55
2023-10-23T13:02:50.565Z,70.93
2023-10-23T13:05:18.328Z,71.14
2023-10-23T13:07:46.115Z,71.25
2023-10-23T13:10:15.191Z,71.26
2023-10-23T13:12:42.922Z,70.30
2023-10-23T13:15:10.766Z,71.34
2023-10-23T13:17:38.467Z,70.71
2023-10-23T13:21:29.563Z,70.27
2023-10-23T13:22:55.422Z,69.60
2023-10-23T13:25:24.595Z,69.17
2023-10-23T13:27:52.393Z,68.86
2023-10-23T13:30:20.111Z,69.54
2023-10-23T13:32:47.934Z,68.98
2023-10-23T13:35:16.497Z,68.73
2023-10-23T13:37:44.247Z,68.02
2023-10-23T13:40:12.980Z,66.41
2023-10-23T13:42:42.181Z,67.61
2023-10-23T13:45:11.002Z,68.05
2023-10-23T13:47:38.874Z,67.79
2023-10-23T13:50:07.621Z,68.38
2023-10-23T13:52:35.334Z,69.26
2023-10-23T13:55:03.958Z,68.72
2023-10-23T13:57:31.710Z,69.07
2023-10-23T14:00:00.733Z,67.89
2023-10-23T14:02:28.527Z,67.07
2023-10-23T14:04:57.165Z,66.96
2023-10-23T14:07:24.930Z,67.80
2023-10-23T14:09:53.107Z,67.09
2023-10-23T14:12:21.294Z,68.48
2023-10-23T14:14:49.236Z,68.30
2023-10-23T14:17:18.441Z,67.01
2023-10-23T14:19:48.537Z,66.53
2023-10-23T14:22:17.133Z,66.57
2023-10-23T14:24:45.102Z,64.73
2023-10-23T14:27:12.962Z,65.26
2023-10-23T14:29:41.060Z,64.91
2023-10-23T14:32:09.066Z,66.14
2023-10-23T14:34:38.130Z,65.00
2023-10-23T14:37:05.816Z,66.33
2023-10-23T14:39:33.771Z,66.50
2023-10-23T14:42:01.451Z,66.28
2023-10-23T14:44:30.411Z,65.79
2023-10-23T14:46:58.256Z,66.70
2023-10-23T14:49:26.647Z,66.86
2023-10-23T14:51:56.024Z,66.76
2023-10-23T14:54:23.978Z,68.60
2023-10-23T14:56:53.253Z,67.42
2023-10-23T14:59:22.847Z,67.11
2023-10-23T15:01:50.705Z,68.52
2023-10-23T15:04:18.811Z,68.89
2023-10-23T15:06:46.599Z,67.65
2023-10-23T15:09:15.650Z,67.39
2023-10-23T15:11:43.415Z,69.13
2023-10-23T15:14:11.458Z,68.65
2023-10-23T15:16:39.638Z,67.93
2023-10-23T15:19:07.445Z,68.69
2023-10-23T15:21:35.184Z,69.31
2023-10-23T15:24:02.912Z,69.49
2023-10-23T15:26:31.906Z,70.20
2023-10-23T15:28:59.641Z,68.94
2023-10-23T15:31:27.427Z,68.53
2023-10-23T15:33:55.292Z,68.59
2023-10-23T15:36:23.010Z,69.39
2023-10-23T15:38:50.829Z,69.23
2023-10-23T15:41:18.541Z,70.28
2023-10-23T15:43:52.453Z,70.16
2023-10-23T15:46:20.798Z,70.43
2023-10-23T15:48:48.613Z,69.99
2023-10-23T15:51:16.901Z,70.74
2023-10-23T15:53:44.636Z,69.90
2023-10-23T15:56:12.446Z,70.38
2023-10-23T15:58:40.180Z,70.64
2023-10-23T16:01:10.418Z,70.40
2023-10-23T16:03:38.422Z,70.71
2023-10-23T16:06:09.170Z,71.44
2023-10-23T16:08:38.499Z,71.53
2023-10-23T16:11:07.125Z,70.93
2023-10-23T16:13:38.100Z,71.59
2023-10-23T16:16:07.091Z,71.46
2023-10-23T16:18:44.302Z,71.86
2023-10-23T16:21:13.863Z,71.91
2023-10-23T16:23:41.612Z,72.12
2023-10-23T16:26:09.426Z,72.89
2023-10-23T16:28:37.179Z,72.52
2023-10-23T16:31:05.163Z,72.31
2023-10-23T16:33:33.825Z,72.95
2023-10-23T16:36:02.931Z,72.72
2023-10-23T16:38:30.651Z,73.37
2023-10-23T16:40:58.307Z,72.92
2023-10-23T16:43:26.124Z,73.43
2023-10-23T16:45:53.876Z,72.48
2023-10-23T16:48:21.868Z,73.03
2023-10-23T16:50:49.623Z,73.12
2023-10-23T16:53:19.801Z,73.58
2023-10-23T16:55:53.169Z,73.08
2023-10-23T16:58:24.396Z,73.07
2023-10-23T17:00:53.575Z,73.28
2023-10-23T17:03:21.830Z,73.33
2023-10-23T17:05:49.774Z,74.34
2023-10-23T17:08:18.873Z,74.71
2023-10-23T17:10:46.560Z,74.94
2023-10-23T17:13:14.364Z,75.39
2023-10-23T17:15:45.416Z,76.34
2023-10-23T17:18:13.232Z,77.60
2023-10-23T17:20:44.929Z,78.34
2023-10-23T17:23:13.097Z,78.62
2023-10-23T17:25:42.736Z,78.91
2023-10-23T17:28:10.471Z,79.27
2023-10-23T17:30:38.348Z,80.62
2023-10-23T17:33:08.033Z,81.68
2023-10-23T17:35:36.031Z,81.67
2023-10-23T17:38:04.976Z,81.13
2023-10-23T17:40:37.386Z,81.17
2023-10-23T17:43:07.081Z,81.96
2023-10-23T17:45:35.534Z,82.33
2023-10-23T17:48:11.874Z,82.90
2023-10-23T17:50:42.153Z,83.40
2023-10-23T17:53:12.483Z,83.46
2023-10-23T17:55:41.591Z,83.29
2023-10-23T17:58:12.592Z,83.61
2023-10-23T18:00:45.834Z,83.70
2023-10-23T18:03:19.151Z,83.94
2023-10-23T18:06:01.812Z,83.79
2023-10-23T18:08:40.849Z,84.06
2023-10-23T18:11:08.796Z,83.87
2023-10-23T18:13:37.980Z,84.25
2023-10-23T18:16:06.479Z,83.93
2023-10-23T18:18:34.314Z,84.37
2023-10-23T18:21:02.161Z,84.44
2023-10-23T18:23:29.959Z,84.13
2023-10-23T18:26:00.609Z,83.96
2023-10-23T18:28:29.095Z,83.88
2023-10-23T18:31:01.803Z,84.24
2023-10-23T18:33:30.428Z,84.14
2023-10-23T18:36:02.159Z,84.75
2023-10-23T18:38:30.488Z,84.94
2023-10-23T18:40:58.358Z,85.20
2023-10-23T18:43:28.243Z,85.40
2023-10-23T18:45:58.270Z,85.41
2023-10-23T18:48:26.299Z,84.93
2023-10-23T18:51:01.015Z,85.91
2023-10-23T18:53:29.335Z,85.63
2023-10-23T18:55:57.006Z,85.42
2023-10-23T18:58:24.925Z,85.34
2023-10-23T19:00:53.545Z,85.58
2023-10-23T19:03:22.863Z,85.59
2023-10-23T19:05:53.664Z,86.15
2023-10-23T19:08:22.581Z,86.21
2023-10-23T19:10:50.774Z,85.80
2023-10-23T19:13:18.525Z,85.90
2023-10-23T19:15:46.282Z,86.65
2023-10-23T19:18:14.094Z,86.38
2023-10-23T19:20:43.172Z,86.49
2023-10-23T19:23:11.015Z,86.82
2023-10-23T19:25:38.746Z,86.11
2023-10-23T19:28:06.626Z,86.66
2023-10-23T19:30:34.461Z,86.14
2023-10-23T19:33:02.755Z,86.57
2023-10-23T19:35:31.625Z,86.51
2023-10-23T19:38:01.311Z,86.49
2023-10-23T19:40:29.773Z,86.06
2023-10-23T19:43:04.569Z,87.25
2023-10-23T19:45:32.926Z,86.92
2023-10-23T19:48:01.219Z,87.00
2023-10-23T19:50:29.631Z,87.04
2023-10-23T19:53:01.985Z,87.32
2023-10-23T19:55:43.591Z,87.48
2023-10-23T19:58:14.320Z,87.24
2023-10-23T20:00:42.158Z,87.04
2023-10-23T20:03:09.959Z,86.88
2023-10-23T20:05:38.248Z,87.09
2023-10-23T20:08:07.511Z,86.98
2023-10-23T20:10:35.329Z,86.76
2023-10-23T20:13:05.683Z,87.23
2023-10-23T20:15:33.432Z,87.01
2023-10-23T20:18:01.138Z,87.55
2023-10-23T20:20:29.028Z,86.96
2023-10-23T20:22:56.700Z,87.35
2023-10-23T20:25:25.880Z,87.36
2023-10-23T20:27:53.611Z,87.33
2023-10-23T20:30:21.286Z,87.43
2023-10-23T20:32:49.530Z,87.45
2023-10-23T20:35:17.497Z,87.50
2023-10-23T20:37:45.705Z,87.36
2023-10-23T20:40:14.146Z,87.07
2023-10-23T20:42:43.242Z,87.89
2023-10-23T20:45:13.097Z,87.50
2023-10-23T20:47:41.190Z,87.83
2023-10-23T20:50:09.869Z,87.95
2023-10-23T20:52:37.617Z,87.99
2023-10-23T20:55:06.507Z,88.10
2023-10-23T20:57:34.292Z,87.67
2023-10-23T21:00:07.208Z,88.12
2023-10-23T21:02:34.931Z,88.20
2023-10-23T21:05:02.653Z,88.03
2023-10-23T21:07:30.458Z,88.21
2023-10-23T21:09:58.158Z,87.99
2023-10-23T21:12:27.101Z,88.35
2023-10-23T21:14:55.333Z,88.26
2023-10-23T21:17:24.375Z,88.06
2023-10-23T21:19:52.118Z,88.53
2023-10-23T21:22:19.899Z,88.25
2023-10-23T21:24:47.930Z,87.69
2023-10-23T21:27:16.421Z,88.19
2023-10-23T21:29:45.175Z,88.34
2023-10-23T21:32:13.070Z,89.45
2023-10-23T21:34:42.231Z,89.30
2023-10-23T21:37:10.014Z,89.24
2023-10-23T21:39:37.852Z,89.01
2023-10-23T21:42:06.065Z,89.36
2023-10-23T21:44:33.738Z,88.68
2023-10-23T21:47:01.512Z,88.84
2023-10-23T21:49:29.335Z,89.72
2023-10-23T21:51:59.180Z,89.12
2023-10-23T21:54:27.581Z,89.18
2023-10-23T21:57:22.017Z,89.41
2023-10-23T21:59:44.046Z,89.35
2023-10-23T22:02:12.652Z,89.46
2023-10-23T22:04:41.177Z,89.26
2023-10-23T22:07:11.306Z,89.34
2023-10-23T22:09:39.661Z,89.56
2023-10-23T22:12:09.027Z,89.98
2023-10-23T22:14:37.194Z,89.55
2023-10-23T22:17:05.377Z,89.16
2023-10-23T22:19:33.184Z,89.48
2023-10-23T22:22:02.099Z,89.32
2023-10-23T22:24:31.141Z,89.28
2023-10-23T22:26:58.869Z,89.05
2023-10-23T22:29:26.534Z,89.62
2023-10-23T22:31:56.393Z,89.22
2023-10-23T22:34:24.260Z,89.46
2023-10-23T22:37:55.721Z,89.18
2023-10-23T22:39:40.998Z,89.61
2023-10-23T22:42:08.864Z,89.64
2023-10-23T22:44:36.507Z,89.79
2023-10-23T22:47:04.381Z,89.53
2023-10-23T22:49:32.850Z,89.23
2023-10-23T22:52:00.969Z,89.32
2023-10-23T22:54:29.267Z,89.21
2023-10-23T22:57:04.036Z,89.51
2023-10-23T22:59:32.209Z,89.50
2023-10-23T23:02:01.574Z,90.11
2023-10-23T23:04:30.003Z,89.07
2023-10-23T23:07:00.697Z,89.40
2023-10-23T23:09:29.009Z,89.86
2023-10-23T23:11:58.928Z,89.36
2023-10-23T23:14:27.081Z,89.62
2023-10-23T23:17:01.364Z,89.61
2023-10-23T23:19:32.108Z,89.96
2023-10-23T23:22:06.531Z,89.28
2023-10-23T23:24:34.335Z,89.17
2023-10-23T23:27:03.492Z,89.30
2023-10-23T23:29:31.195Z,89.80
2023-10-23T23:31:59.117Z,89.15
2023-10-23T23:34:26.931Z,89.03
2023-10-23T23:36:54.839Z,89.67
2023-10-23T23:39:22.670Z,89.49
2023-10-23T23:41:50.423Z,89.17
2023-10-23T23:44:19.510Z,89.04
2023-10-23T23:46:47.298Z,90.13
2023-10-23T23:49:15.881Z,89.90
2023-10-23T23:51:43.598Z,89.98
2023-10-23T23:54:11.330Z,89.92
2023-10-23T23:56:39.013Z,90.21
2023-10-23T23:59:06.702Z,90.30
